sensor_id;sensor_type;location;lat;lon;timestamp;pressure;altitude;pressure_sealevel;temperature;humidity
75036;BME280;64247;51.540;5.854;2023-05-10T00:00:44;100538.44;;;12.11;100.00
75036;BME280;64247;51.540;5.854;2023-05-10T00:02:44;100546.59;;;12.11;100.00
75036;BME280;64247;51.540;5.854;2023-05-10T00:04:46;100540.00;;;12.12;100.00
75036;BME280;64247;51.540;5.854;2023-05-10T00:06:46;100538.13;;;12.16;100.00
75036;BME280;64247;51.540;5.854;2023-05-10T00:08:47;100544.44;;;12.20;100.00
75036;BME280;64247;51.540;5.854;2023-05-10T00:10:48;100550.31;;;12.22;100.00
75036;BME280;64247;51.540;5.854;2023-05-10T00:12:49;100541.78;;;12.24;100.00
75036;BME280;64247;51.540;5.854;2023-05-10T00:14:50;100541.78;;;12.24;100.00
75036;BME280;64247;51.540;5.854;2023-05-10T00:16:51;100543.28;;;12.21;100.00
75036;BME280;64247;51.540;5.854;2023-05-10T00:18:52;100545.22;;;12.21;100.00
75036;BME280;64247;51.540;5.854;2023-05-10T00:20:53;100543.22;;;12.17;100.00
75036;BME280;64247;51.540;5.854;2023-05-10T00:22:54;100539.72;;;12.17;100.00
75036;BME280;64247;51.540;5.854;2023-05-10T00:24:55;100538.94;;;12.16;100.00
75036;BME280;64247;51.540;5.854;2023-05-10T00:26:56;100542.44;;;12.17;100.00
75036;BME280;64247;51.540;5.854;2023-05-10T00:28:56;100546.34;;;12.19;100.00
75036;BME280;64247;51.540;5.854;2023-05-10T00:30:58;100539.44;;;12.22;100.00
75036;BME280;64247;51.540;5.854;2023-05-10T00:32:59;100540.84;;;12.16;100.00
75036;BME280;64247;51.540;5.854;2023-05-10T00:35:00;100528.69;;;12.10;100.00
75036;BME280;64247;51.540;5.854;2023-05-10T00:37:01;100538.34;;;12.07;100.00
75036;BME280;64247;51.540;5.854;2023-05-10T00:39:03;100529.75;;;12.05;100.00
75036;BME280;64247;51.540;5.854;2023-05-10T00:41:04;100536.34;;;12.04;100.00
75036;BME280;64247;51.540;5.854;2023-05-10T00:43:08;100538.66;;;12.02;100.00
75036;BME280;64247;51.540;5.854;2023-05-10T00:45:09;100535.94;;;12.02;100.00
75036;BME280;64247;51.540;5.854;2023-05-10T00:47:10;100534.34;;;12.01;100.00
75036;BME280;64247;51.540;5.854;2023-05-10T00:49:12;100535.84;;;11.98;100.00
75036;BME280;64247;51.540;5.854;2023-05-10T00:51:13;100524.63;;;12.00;100.00
75036;BME280;64247;51.540;5.854;2023-05-10T00:53:15;100533.91;;;11.99;100.00
75036;BME280;64247;51.540;5.854;2023-05-10T00:55:16;100538.13;;;11.96;100.00
75036;BME280;64247;51.540;5.854;2023-05-10T00:57:18;100527.59;;;11.95;100.00
75036;BME280;64247;51.540;5.854;2023-05-10T00:59:19;100535.31;;;11.93;100.00
75036;BME280;64247;51.540;5.854;2023-05-10T01:01:21;100530.59;;;11.90;100.00
75036;BME280;64247;51.540;5.854;2023-05-10T01:03:23;100530.59;;;11.90;100.00
75036;BME280;64247;51.540;5.854;2023-05-10T01:05:24;100525.59;;;11.92;100.00
75036;BME280;64247;51.540;5.854;2023-05-10T01:07:25;100533.38;;;11.93;100.00
75036;BME280;64247;51.540;5.854;2023-05-10T01:09:27;100519.78;;;11.93;100.00
75036;BME280;64247;51.540;5.854;2023-05-10T01:11:28;100525.22;;;11.93;100.00
75036;BME280;64247;51.540;5.854;2023-05-10T01:13:52;100525.66;;;11.95;100.00
75036;BME280;64247;51.540;5.854;2023-05-10T01:15:57;100533.47;;;11.97;100.00
75036;BME280;64247;51.540;5.854;2023-05-10T01:17:59;100537.69;;;11.94;100.00
75036;BME280;64247;51.540;5.854;2023-05-10T01:20:01;100541.53;;;11.93;100.00
75036;BME280;64247;51.540;5.854;2023-05-10T01:25:31;100540.03;;;11.96;100.00
75036;BME280;64247;51.540;5.854;2023-05-10T01:31:27;100536.53;;;11.95;100.00
75036;BME280;64247;51.540;5.854;2023-05-10T01:33:55;100538.81;;;11.93;100.00
75036;BME280;64247;51.540;5.854;2023-05-10T01:36:32;100539.88;;;11.88;100.00
75036;BME280;64247;51.540;5.854;2023-05-10T01:42:01;100532.03;;;11.83;100.00
75036;BME280;64247;51.540;5.854;2023-05-10T01:44:34;100533.97;;;11.83;100.00
75036;BME280;64247;51.540;5.854;2023-05-10T01:46:40;100538.59;;;11.82;100.00
75036;BME280;64247;51.540;5.854;2023-05-10T01:48:51;100529.28;;;11.83;100.00
75036;BME280;64247;51.540;5.854;2023-05-10T01:50:55;100534.38;;;11.85;100.00
75036;BME280;64247;51.540;5.854;2023-05-10T01:53:00;100534.38;;;11.85;100.00
75036;BME280;64247;51.540;5.854;2023-05-10T01:55:08;100531.72;;;11.88;100.00
75036;BME280;64247;51.540;5.854;2023-05-10T01:57:13;100538.03;;;11.93;100.00
75036;BME280;64247;51.540;5.854;2023-05-10T01:59:19;100533.38;;;11.93;100.00
75036;BME280;64247;51.540;5.854;2023-05-10T02:01:22;100529.94;;;11.96;100.00
75036;BME280;64247;51.540;5.854;2023-05-10T02:03:27;100525.75;;;11.99;100.00
75036;BME280;64247;51.540;5.854;2023-05-10T02:05:32;100533.22;;;12.02;100.00
75036;BME280;64247;51.540;5.854;2023-05-10T02:07:37;100537.13;;;12.05;100.00
75036;BME280;64247;51.540;5.854;2023-05-10T02:09:44;100537.22;;;12.08;100.00
75036;BME280;64247;51.540;5.854;2023-05-10T02:11:50;100530.63;;;12.09;100.00
75036;BME280;64247;51.540;5.854;2023-05-10T02:13:51;100543.16;;;12.14;100.00
75036;BME280;64247;51.540;5.854;2023-05-10T02:15:59;100536.22;;;12.16;100.00
75036;BME280;64247;51.540;5.854;2023-05-10T02:18:03;100547.94;;;12.21;100.00
75036;BME280;64247;51.540;5.854;2023-05-10T02:20:06;100542.22;;;12.26;100.00
75036;BME280;64247;51.540;5.854;2023-05-10T02:22:09;100548.50;;;12.30;100.00
75036;BME280;64247;51.540;5.854;2023-05-10T02:24:12;100547.81;;;12.33;100.00
75036;BME280;64247;51.540;5.854;2023-05-10T02:26:16;100547.06;;;12.36;100.00
75036;BME280;64247;51.540;5.854;2023-05-10T02:28:19;100547.13;;;12.40;100.00
75036;BME280;64247;51.540;5.854;2023-05-10T02:30:23;100542.44;;;12.37;100.00
75036;BME280;64247;51.540;5.854;2023-05-10T02:32:26;100553.31;;;12.37;100.00
75036;BME280;64247;51.540;5.854;2023-05-10T02:34:30;100544.34;;;12.36;100.00
75036;BME280;64247;51.540;5.854;2023-05-10T02:36:32;100553.72;;;12.39;100.00
75036;BME280;64247;51.540;5.854;2023-05-10T02:38:35;100549.91;;;12.43;100.00
75036;BME280;64247;51.540;5.854;2023-05-10T02:40:37;100551.13;;;12.46;100.00
75036;BME280;64247;51.540;5.854;2023-05-10T02:42:41;100545.75;;;12.49;100.00
75036;BME280;64247;51.540;5.854;2023-05-10T02:44:47;100550.03;;;12.50;100.00
75036;BME280;64247;51.540;5.854;2023-05-10T02:46:51;100555.50;;;12.50;100.00
75036;BME280;64247;51.540;5.854;2023-05-10T02:48:52;100547.69;;;12.49;100.00
75036;BME280;64247;51.540;5.854;2023-05-10T02:50:54;100547.31;;;12.50;100.00
75036;BME280;64247;51.540;5.854;2023-05-10T02:53:06;100553.19;;;12.53;100.00
75036;BME280;64247;51.540;5.854;2023-05-10T02:55:14;100552.06;;;12.54;100.00
75036;BME280;64247;51.540;5.854;2023-05-10T02:57:24;100555.56;;;12.54;100.00
75036;BME280;64247;51.540;5.854;2023-05-10T02:59:28;100556.69;;;12.53;100.00
75036;BME280;64247;51.540;5.854;2023-05-10T03:01:29;100559.09;;;12.55;100.00
75036;BME280;64247;51.540;5.854;2023-05-10T03:03:30;100557.94;;;12.56;100.00
75036;BME280;64247;51.540;5.854;2023-05-10T03:05:32;100555.56;;;12.54;100.00
75036;BME280;64247;51.540;5.854;2023-05-10T03:07:36;100557.13;;;12.55;100.00
75036;BME280;64247;51.540;5.854;2023-05-10T03:09:37;100554.03;;;12.57;100.00
75036;BME280;64247;51.540;5.854;2023-05-10T03:12:00;100543.53;;;12.55;100.00
75036;BME280;64247;51.540;5.854;2023-05-10T03:15:42;100552.56;;;12.59;100.00
75036;BME280;64247;51.540;5.854;2023-05-10T03:17:39;100554.97;;;12.64;100.00
75036;BME280;64247;51.540;5.854;2023-05-10T03:19:55;100557.38;;;12.70;100.00
75036;BME280;64247;51.540;5.854;2023-05-10T03:22:04;100557.38;;;12.70;100.00
75036;BME280;64247;51.540;5.854;2023-05-10T03:24:12;100551.16;;;12.69;100.00
75036;BME280;64247;51.540;5.854;2023-05-10T03:26:27;100554.97;;;12.64;100.00
75036;BME280;64247;51.540;5.854;2023-05-10T03:28:37;100562.50;;;12.71;100.00
75036;BME280;64247;51.540;5.854;2023-05-10T03:30:41;100563.22;;;12.68;100.00
75036;BME280;64247;51.540;5.854;2023-05-10T03:32:45;100566.72;;;12.69;100.00
75036;BME280;64247;51.540;5.854;2023-05-10T03:34:46;100562.44;;;12.68;100.00
75036;BME280;64247;51.540;5.854;2023-05-10T03:36:47;100567.06;;;12.67;100.00
75036;BME280;64247;51.540;5.854;2023-05-10T03:38:48;100573.38;;;12.71;100.00
75036;BME280;64247;51.540;5.854;2023-05-10T03:40:50;100566.81;;;12.76;100.00
75036;BME280;64247;51.540;5.854;2023-05-10T03:42:50;100569.16;;;12.74;100.00
75036;BME280;64247;51.540;5.854;2023-05-10T03:44:51;100571.88;;;12.74;100.00
75036;BME280;64247;51.540;5.854;2023-05-10T03:46:52;100573.06;;;12.76;100.00
75036;BME280;64247;51.540;5.854;2023-05-10T03:48:53;100578.53;;;12.76;100.00
75036;BME280;64247;51.540;5.854;2023-05-10T03:50:54;100578.91;;;12.75;100.00
75036;BME280;64247;51.540;5.854;2023-05-10T03:52:55;100569.91;;;12.74;100.00
75036;BME280;64247;51.540;5.854;2023-05-10T03:54:56;100579.25;;;12.73;100.00
75036;BME280;64247;51.540;5.854;2023-05-10T03:56:58;100587.00;;;12.71;100.00
75036;BME280;64247;51.540;5.854;2023-05-10T03:58:59;100583.41;;;12.67;100.00
75036;BME280;64247;51.540;5.854;2023-05-10T04:01:00;100585.69;;;12.65;100.00
75036;BME280;64247;51.540;5.854;2023-05-10T04:03:01;100593.09;;;12.64;100.00
75036;BME280;64247;51.540;5.854;2023-05-10T04:05:02;100590.75;;;12.63;100.00
75036;BME280;64247;51.540;5.854;2023-05-10T04:07:03;100591.09;;;12.61;100.00
75036;BME280;64247;51.540;5.854;2023-05-10T04:09:04;100580.56;;;12.60;100.00
75036;BME280;64247;51.540;5.854;2023-05-10T04:11:06;100591.47;;;12.60;100.00
75036;BME280;64247;51.540;5.854;2023-05-10T04:13:11;100593.03;;;12.61;100.00
75036;BME280;64247;51.540;5.854;2023-05-10T04:15:12;100600.44;;;12.60;100.00
75036;BME280;64247;51.540;5.854;2023-05-10T04:17:13;100596.91;;;12.60;100.00
75036;BME280;64247;51.540;5.854;2023-05-10T04:19:14;100592.97;;;12.57;100.00
75036;BME280;64247;51.540;5.854;2023-05-10T04:21:15;100594.19;;;12.60;100.00
75036;BME280;64247;51.540;5.854;2023-05-10T04:23:15;100589.09;;;12.58;100.00
75036;BME280;64247;51.540;5.854;2023-05-10T04:25:17;100589.88;;;12.59;100.00
75036;BME280;64247;51.540;5.854;2023-05-10T04:27:18;100595.25;;;12.55;100.00
75036;BME280;64247;51.540;5.854;2023-05-10T04:29:18;100597.19;;;12.55;100.00
75036;BME280;64247;51.540;5.854;2023-05-10T04:31:19;100590.19;;;12.54;100.00
75036;BME280;64247;51.540;5.854;2023-05-10T04:33:20;100585.94;;;12.56;100.00
75036;BME280;64247;51.540;5.854;2023-05-10T04:35:21;100604.63;;;12.58;100.00
75036;BME280;64247;51.540;5.854;2023-05-10T04:37:22;100602.66;;;12.55;100.00
75036;BME280;64247;51.540;5.854;2023-05-10T04:39:23;100591.81;;;12.58;100.00
75036;BME280;64247;51.540;5.854;2023-05-10T04:41:24;100592.66;;;12.62;100.00
75036;BME280;64247;51.540;5.854;2023-05-10T04:43:26;100594.69;;;12.65;100.00
75036;BME280;64247;51.540;5.854;2023-05-10T04:45:26;100595.88;;;12.68;100.00
75036;BME280;64247;51.540;5.854;2023-05-10T04:47:27;100591.22;;;12.69;100.00
75036;BME280;64247;51.540;5.854;2023-05-10T04:49:29;100605.56;;;12.65;100.00
75036;BME280;64247;51.540;5.854;2023-05-10T04:51:30;100597.78;;;12.64;100.00
75036;BME280;64247;51.540;5.854;2023-05-10T04:53:32;100606.00;;;12.68;100.00
75036;BME280;64247;51.540;5.854;2023-05-10T04:55:33;100606.78;;;12.68;100.00
75036;BME280;64247;51.540;5.854;2023-05-10T04:57:33;100607.84;;;12.63;100.00
75036;BME280;64247;51.540;5.854;2023-05-10T04:59:36;100603.94;;;12.61;100.00
75036;BME280;64247;51.540;5.854;2023-05-10T05:01:37;100617.03;;;12.55;100.00
75036;BME280;64247;51.540;5.854;2023-05-10T05:03:38;100607.66;;;12.53;100.00
75036;BME280;64247;51.540;5.854;2023-05-10T05:05:39;100609.53;;;12.48;100.00
75036;BME280;64247;51.540;5.854;2023-05-10T05:07:40;100606.81;;;12.48;100.00
75036;BME280;64247;51.540;5.854;2023-05-10T05:09:41;100617.28;;;12.46;100.00
75036;BME280;64247;51.540;5.854;2023-05-10T05:11:42;100614.09;;;12.44;100.00
75036;BME280;64247;51.540;5.854;2023-05-10T05:13:43;100604.81;;;12.45;100.00
75036;BME280;64247;51.540;5.854;2023-05-10T05:15:44;100621.50;;;12.44;100.00
75036;BME280;64247;51.540;5.854;2023-05-10T05:17:45;100623.78;;;12.42;100.00
75036;BME280;64247;51.540;5.854;2023-05-10T05:19:46;100627.22;;;12.39;100.00
75036;BME280;64247;51.540;5.854;2023-05-10T05:21:46;100626.06;;;12.40;100.00
75036;BME280;64247;51.540;5.854;2023-05-10T05:23:47;100628.09;;;12.43;100.00
75036;BME280;64247;51.540;5.854;2023-05-10T05:25:48;100626.06;;;12.40;100.00
75036;BME280;64247;51.540;5.854;2023-05-10T05:27:49;100628.34;;;12.38;100.00
75036;BME280;64247;51.540;5.854;2023-05-10T05:29:52;100622.91;;;12.38;100.00
75036;BME280;64247;51.540;5.854;2023-05-10T05:31:53;100624.84;;;12.37;100.00
75036;BME280;64247;51.540;5.854;2023-05-10T05:33:54;100627.13;;;12.35;100.00
75036;BME280;64247;51.540;5.854;2023-05-10T05:35:55;100627.13;;;12.35;100.00
75036;BME280;64247;51.540;5.854;2023-05-10T05:37:57;100638.31;;;12.30;100.00
75036;BME280;64247;51.540;5.854;2023-05-10T05:39:57;100638.19;;;12.23;100.00
75036;BME280;64247;51.540;5.854;2023-05-10T05:41:58;100633.81;;;12.18;100.00
75036;BME280;64247;51.540;5.854;2023-05-10T05:43:59;100645.06;;;12.16;100.00
75036;BME280;64247;51.540;5.854;2023-05-10T05:46:00;100639.16;;;12.14;100.00
75036;BME280;64247;51.540;5.854;2023-05-10T05:48:01;100646.13;;;12.12;100.00
75036;BME280;64247;51.540;5.854;2023-05-10T05:50:02;100642.19;;;12.09;100.00
75036;BME280;64247;51.540;5.854;2023-05-10T05:52:03;100649.47;;;12.05;100.00
75036;BME280;64247;51.540;5.854;2023-05-10T05:54:04;100650.19;;;12.02;100.00
75036;BME280;64247;51.540;5.854;2023-05-10T05:56:05;100649.81;;;12.03;100.00
75036;BME280;64247;51.540;5.854;2023-05-10T05:58:06;100657.19;;;12.03;100.00
75036;BME280;64247;51.540;5.854;2023-05-10T06:00:07;100654.47;;;12.03;100.00
75036;BME280;64247;51.540;5.854;2023-05-10T06:02:14;100655.78;;;12.09;100.00
75036;BME280;64247;51.540;5.854;2023-05-10T06:04:15;100660.56;;;12.16;100.00
75036;BME280;64247;51.540;5.854;2023-05-10T06:06:17;100661.47;;;12.20;100.00
75036;BME280;64247;51.540;5.854;2023-05-10T06:08:18;100674.78;;;12.25;100.00
75036;BME280;64247;51.540;5.854;2023-05-10T06:10:18;100668.69;;;12.32;100.00
75036;BME280;64247;51.540;5.854;2023-05-10T06:12:19;100672.00;;;12.41;100.00
75036;BME280;64247;51.540;5.854;2023-05-10T06:14:20;100674.88;;;12.48;100.00
75036;BME280;64247;51.540;5.854;2023-05-10T06:16:21;100680.09;;;12.57;100.00
75036;BME280;64247;51.540;5.854;2023-05-10T06:18:22;100678.28;;;12.65;100.00
75036;BME280;64247;51.540;5.854;2023-05-10T06:20:23;100677.72;;;12.75;100.00
75036;BME280;64247;51.540;5.854;2023-05-10T06:22:24;100680.16;;;12.80;100.00
75036;BME280;64247;51.540;5.854;2023-05-10T06:24:25;100677.84;;;12.82;100.00
75036;BME280;64247;51.540;5.854;2023-05-10T06:26:27;100678.66;;;12.83;100.00
75036;BME280;64247;51.540;5.854;2023-05-10T06:28:28;100679.06;;;12.85;100.00
75036;BME280;64247;51.540;5.854;2023-05-10T06:30:29;100686.09;;;12.86;100.00
75036;BME280;64247;51.540;5.854;2023-05-10T06:32:30;100677.56;;;12.88;100.00
75036;BME280;64247;51.540;5.854;2023-05-10T06:34:31;100680.72;;;12.90;100.00
75036;BME280;64247;51.540;5.854;2023-05-10T06:36:31;100685.38;;;12.89;100.00
75036;BME280;64247;51.540;5.854;2023-05-10T06:38:32;100681.53;;;12.90;100.00
75036;BME280;64247;51.540;5.854;2023-05-10T06:40:33;100674.13;;;12.91;100.00
75036;BME280;64247;51.540;5.854;2023-05-10T06:42:34;100688.63;;;12.95;100.00
75036;BME280;64247;51.540;5.854;2023-05-10T06:44:37;100685.97;;;12.98;100.00
75036;BME280;64247;51.540;5.854;2023-05-10T06:46:37;100685.22;;;13.02;100.00
75036;BME280;64247;51.540;5.854;2023-05-10T06:48:38;100683.28;;;13.02;100.00
75036;BME280;64247;51.540;5.854;2023-05-10T06:50:39;100684.84;;;13.03;100.00
75036;BME280;64247;51.540;5.854;2023-05-10T06:52:40;100686.50;;;13.08;100.00
75036;BME280;64247;51.540;5.854;2023-05-10T06:54:41;100699.03;;;13.12;100.00
75036;BME280;64247;51.540;5.854;2023-05-10T06:56:42;100684.69;;;13.16;100.00
75036;BME280;64247;51.540;5.854;2023-05-10T06:58:43;100701.06;;;13.16;100.00
75036;BME280;64247;51.540;5.854;2023-05-10T07:00:44;100698.31;;;13.16;100.00
75036;BME280;64247;51.540;5.854;2023-05-10T07:02:46;100703.84;;;13.19;100.00
75036;BME280;64247;51.540;5.854;2023-05-10T07:04:47;100700.38;;;13.22;100.00
75036;BME280;64247;51.540;5.854;2023-05-10T07:06:48;100705.03;;;13.22;100.00
75036;BME280;64247;51.540;5.854;2023-05-10T07:08:50;100709.72;;;13.21;100.00
75036;BME280;64247;51.540;5.854;2023-05-10T07:10:50;100713.16;;;13.18;100.00
75036;BME280;64247;51.540;5.854;2023-05-10T07:12:51;100710.81;;;13.17;100.00
75036;BME280;64247;51.540;5.854;2023-05-10T07:14:52;100725.59;;;13.16;100.00
75036;BME280;64247;51.540;5.854;2023-05-10T07:16:53;100719.31;;;13.15;100.00
75036;BME280;64247;51.540;5.854;2023-05-10T07:18:54;100715.88;;;13.18;100.00
75036;BME280;64247;51.540;5.854;2023-05-10T07:20:56;100714.31;;;13.17;100.00
75036;BME280;64247;51.540;5.854;2023-05-10T07:22:58;100715.50;;;13.20;100.00
75036;BME280;64247;51.540;5.854;2023-05-10T07:24:59;100716.00;;;13.25;100.00
75036;BME280;64247;51.540;5.854;2023-05-10T07:26:59;100720.31;;;13.26;100.00
75036;BME280;64247;51.540;5.854;2023-05-10T07:29:00;100717.22;;;13.28;100.00
75036;BME280;64247;51.540;5.854;2023-05-10T07:31:01;100721.53;;;13.29;100.00
75036;BME280;64247;51.540;5.854;2023-05-10T07:33:02;100728.94;;;13.28;100.00
75036;BME280;64247;51.540;5.854;2023-05-10T07:35:03;100727.34;;;13.27;100.00
75036;BME280;64247;51.540;5.854;2023-05-10T07:37:05;100726.97;;;13.29;100.00
75036;BME280;64247;51.540;5.854;2023-05-10T07:39:06;100730.41;;;13.26;100.00
75036;BME280;64247;51.540;5.854;2023-05-10T07:41:07;100726.16;;;13.25;100.00
75036;BME280;64247;51.540;5.854;2023-05-10T07:43:08;100726.53;;;13.27;100.00
75036;BME280;64247;51.540;5.854;2023-05-10T07:45:09;100724.69;;;13.31;100.00
75036;BME280;64247;51.540;5.854;2023-05-10T07:47:10;100728.25;;;13.35;100.00
75036;BME280;64247;51.540;5.854;2023-05-10T07:49:12;100734.06;;;13.34;100.00
75036;BME280;64247;51.540;5.854;2023-05-10T07:51:12;100741.09;;;13.35;100.00
75036;BME280;64247;51.540;5.854;2023-05-10T07:53:14;100739.91;;;13.32;100.00
75036;BME280;64247;51.540;5.854;2023-05-10T07:55:14;100742.97;;;13.30;100.00
75036;BME280;64247;51.540;5.854;2023-05-10T07:57:15;100737.50;;;13.30;100.00
75036;BME280;64247;51.540;5.854;2023-05-10T07:59:18;100740.69;;;13.33;100.00
75036;BME280;64247;51.540;5.854;2023-05-10T08:01:19;100749.22;;;13.31;100.00
75036;BME280;64247;51.540;5.854;2023-05-10T08:03:20;100752.00;;;13.35;100.00
75036;BME280;64247;51.540;5.854;2023-05-10T08:05:21;100753.59;;;13.36;100.00
75036;BME280;64247;51.540;5.854;2023-05-10T08:07:23;100746.84;;;13.29;100.00
75036;BME280;64247;51.540;5.854;2023-05-10T08:09:24;100751.44;;;13.25;100.00
75036;BME280;64247;51.540;5.854;2023-05-10T08:11:25;100756.47;;;13.23;100.00
75036;BME280;64247;51.540;5.854;2023-05-10T08:13:28;100753.09;;;13.30;100.00
75036;BME280;64247;51.540;5.854;2023-05-10T08:15:29;100752.66;;;13.28;100.00
75036;BME280;64247;51.540;5.854;2023-05-10T08:17:29;100756.59;;;13.30;100.00
75036;BME280;64247;51.540;5.854;2023-05-10T08:19:30;100760.13;;;13.31;100.00
75036;BME280;64247;51.540;5.854;2023-05-10T08:21:31;100758.97;;;13.32;100.00
75036;BME280;64247;51.540;5.854;2023-05-10T08:23:32;100764.84;;;13.34;100.00
75036;BME280;64247;51.540;5.854;2023-05-10T08:25:33;100768.00;;;13.36;100.00
75036;BME280;64247;51.540;5.854;2023-05-10T08:27:34;100773.91;;;13.38;100.00
75036;BME280;64247;51.540;5.854;2023-05-10T08:29:35;100769.94;;;13.36;100.00
75036;BME280;64247;51.540;5.854;2023-05-10T08:31:36;100772.03;;;13.42;100.00
75036;BME280;64247;51.540;5.854;2023-05-10T08:33:37;100774.81;;;13.46;100.00
75036;BME280;64247;51.540;5.854;2023-05-10T08:35:38;100770.50;;;13.45;100.00
75036;BME280;64247;51.540;5.854;2023-05-10T08:37:39;100779.38;;;13.38;100.00
75036;BME280;64247;51.540;5.854;2023-05-10T08:39:40;100779.66;;;13.33;100.00
75036;BME280;64247;51.540;5.854;2023-05-10T08:41:44;100783.09;;;13.30;100.00
75036;BME280;64247;51.540;5.854;2023-05-10T08:43:45;100783.78;;;13.27;100.00
75036;BME280;64247;51.540;5.854;2023-05-10T08:45:46;100780.22;;;13.23;100.00
75036;BME280;64247;51.540;5.854;2023-05-10T08:47:51;100785.25;;;13.21;100.00
75036;BME280;64247;51.540;5.854;2023-05-10T08:49:53;100799.22;;;13.19;100.00
75036;BME280;64247;51.540;5.854;2023-05-10T08:51:56;100793.34;;;13.17;100.00
75036;BME280;64247;51.540;5.854;2023-05-10T08:54:00;100795.38;;;13.20;100.00
75036;BME280;64247;51.540;5.854;2023-05-10T08:56:02;100800.16;;;13.27;100.00
75036;BME280;64247;51.540;5.854;2023-05-10T08:58:07;100799.88;;;13.32;100.00
75036;BME280;64247;51.540;5.854;2023-05-10T09:00:09;100804.19;;;13.33;100.00
75036;BME280;64247;51.540;5.854;2023-05-10T09:02:11;100813.22;;;13.37;100.00
75036;BME280;64247;51.540;5.854;2023-05-10T09:04:14;100809.38;;;13.38;100.00
75036;BME280;64247;51.540;5.854;2023-05-10T09:06:15;100813.56;;;13.36;100.00
75036;BME280;64247;51.540;5.854;2023-05-10T09:08:17;100806.53;;;13.35;100.00
75036;BME280;64247;51.540;5.854;2023-05-10T09:10:19;100818.09;;;13.28;100.00
75036;BME280;64247;51.540;5.854;2023-05-10T09:12:21;100810.91;;;13.20;100.00
75036;BME280;64247;51.540;5.854;2023-05-10T09:14:23;100809.19;;;13.11;100.00
75036;BME280;64247;51.540;5.854;2023-05-10T09:16:25;100810.25;;;13.07;100.00
75036;BME280;64247;51.540;5.854;2023-05-10T09:18:26;100819.19;;;13.04;100.00
75036;BME280;64247;51.540;5.854;2023-05-10T09:20:27;100818.81;;;13.05;100.00
75036;BME280;64247;51.540;5.854;2023-05-10T09:22:30;100825.91;;;13.10;100.00
75036;BME280;64247;51.540;5.854;2023-05-10T09:24:31;100827.00;;;13.25;100.00
75036;BME280;64247;51.540;5.854;2023-05-10T09:26:32;100827.31;;;13.39;100.00
75036;BME280;64247;51.540;5.854;2023-05-10T09:28:34;100828.00;;;13.56;100.00
75036;BME280;64247;51.540;5.854;2023-05-10T09:30:54;100826.06;;;13.80;100.00
75036;BME280;64247;51.540;5.854;2023-05-10T09:32:57;100826.38;;;13.98;100.00
75036;BME280;64247;51.540;5.854;2023-05-10T09:35:09;100833.44;;;14.25;100.00
75036;BME280;64247;51.540;5.854;2023-05-10T09:37:11;100837.81;;;14.57;100.00
75036;BME280;64247;51.540;5.854;2023-05-10T09:39:12;100828.69;;;14.72;100.00
75036;BME280;64247;51.540;5.854;2023-05-10T09:41:20;100828.06;;;14.83;100.00
75036;BME280;64247;51.540;5.854;2023-05-10T09:43:23;100831.59;;;14.87;100.00
75036;BME280;64247;51.540;5.854;2023-05-10T09:45:25;100832.78;;;14.86;100.00
75036;BME280;64247;51.540;5.854;2023-05-10T09:47:28;100840.19;;;14.85;100.00
75036;BME280;64247;51.540;5.854;2023-05-10T09:49:29;100834.66;;;14.82;100.00
75036;BME280;64247;51.540;5.854;2023-05-10T09:51:31;100840.81;;;14.75;100.00
75036;BME280;64247;51.540;5.854;2023-05-10T09:53:32;100845.88;;;14.73;100.00
75036;BME280;64247;51.540;5.854;2023-05-10T09:55:44;100845.13;;;14.76;100.00
75036;BME280;64247;51.540;5.854;2023-05-10T09:57:46;100847.19;;;14.83;100.00
75036;BME280;64247;51.540;5.854;2023-05-10T09:59:48;100836.78;;;14.92;100.00
75036;BME280;64247;51.540;5.854;2023-05-10T10:01:51;100840.69;;;14.95;100.00
75036;BME280;64247;51.540;5.854;2023-05-10T10:03:53;100835.31;;;15.02;100.00
75036;BME280;64247;51.540;5.854;2023-05-10T10:05:54;100850.66;;;15.10;100.00
75036;BME280;64247;51.540;5.854;2023-05-10T10:08:01;100837.03;;;15.14;100.00
75036;BME280;64247;51.540;5.854;2023-05-10T10:10:04;100848.00;;;15.17;100.00
75036;BME280;64247;51.540;5.854;2023-05-10T10:12:06;100841.00;;;15.20;100.00
75036;BME280;64247;51.540;5.854;2023-05-10T10:14:07;100859.81;;;15.25;100.00
75036;BME280;64247;51.540;5.854;2023-05-10T10:16:08;100860.28;;;15.31;100.00
75036;BME280;64247;51.540;5.854;2023-05-10T10:18:13;100856.88;;;15.41;100.00
75036;BME280;64247;51.540;5.854;2023-05-10T10:20:16;100857.41;;;15.54;100.00
75036;BME280;64247;51.540;5.854;2023-05-10T10:22:18;100861.03;;;15.65;100.00
75036;BME280;64247;51.540;5.854;2023-05-10T10:24:19;100850.19;;;15.76;100.00
75036;BME280;64247;51.540;5.854;2023-05-10T10:26:20;100843.66;;;15.85;100.00
75036;BME280;64247;51.540;5.854;2023-05-10T10:31:48;100855.63;;;16.10;100.00
75036;BME280;64247;51.540;5.854;2023-05-10T10:34:10;100850.25;;;16.25;100.00
75036;BME280;64247;51.540;5.854;2023-05-10T10:36:20;100855.13;;;16.46;100.00
75036;BME280;64247;51.540;5.854;2023-05-10T10:38:21;100845.06;;;16.72;96.71
75036;BME280;64247;51.540;5.854;2023-05-10T10:40:46;100849.97;;;17.04;97.06
75036;BME280;64247;51.540;5.854;2023-05-10T10:42:48;100852.81;;;17.36;97.17
75036;BME280;64247;51.540;5.854;2023-05-10T10:45:11;100849.78;;;17.78;93.88
75036;BME280;64247;51.540;5.854;2023-05-10T10:47:33;100845.50;;;17.98;93.11
75036;BME280;64247;51.540;5.854;2023-05-10T10:52:26;100841.59;;;18.07;91.77